createdAt,value
2018-09-03T00:01:14.533Z,5.90
2018-09-03T00:03:43.281Z,5.03
2018-09-03T00:06:12.046Z,6.23
2018-09-03T00:08:40.833Z,6.30
2018-09-03T00:11:09.651Z,6.57
2018-09-03T00:13:38.474Z,6.67
2018-09-03T00:16:07.381Z,6.53
2018-09-03T00:18:36.159Z,6.63
2018-09-03T00:21:04.988Z,7.10
2018-09-03T00:23:33.775Z,8.07
2018-09-03T00:26:02.591Z,9.00
2018-09-03T00:28:31.352Z,7.53
2018-09-03T00:31:05.460Z,7.63
2018-09-03T00:35:45.908Z,8.40
2018-09-03T00:38:19.949Z,9.20
2018-09-03T00:40:54.058Z,9.20
2018-09-03T00:43:28.235Z,9.10
2018-09-03T00:46:02.230Z,11.07
2018-09-03T00:48:31.038Z,10.33
2018-09-03T00:50:59.831Z,10.10
2018-09-03T00:53:28.586Z,9.03
2018-09-03T00:55:57.506Z,8.50
2018-09-03T00:58:26.339Z,8.73
2018-09-03T01:00:55.131Z,8.77
2018-09-03T01:03:23.988Z,7.80
2018-09-03T01:05:52.745Z,8.53
2018-09-03T01:08:21.921Z,8.57
2018-09-03T01:10:50.798Z,9.83
2018-09-03T01:13:19.599Z,8.57
2018-09-03T01:15:48.394Z,8.10
2018-09-03T01:18:17.211Z,9.00
2018-09-03T01:20:47.882Z,9.07
2018-09-03T01:23:16.731Z,9.00
2018-09-03T01:25:45.539Z,9.03
2018-09-03T01:28:14.364Z,8.23
2018-09-03T01:30:43.170Z,7.83
2018-09-03T01:33:11.954Z,8.00
2018-09-03T01:35:40.755Z,7.93
2018-09-03T01:38:09.563Z,7.57
2018-09-03T01:40:38.353Z,7.90
2018-09-03T01:43:07.155Z,7.47
2018-09-03T01:45:35.924Z,7.17
2018-09-03T01:48:04.787Z,8.70
2018-09-03T01:50:33.566Z,8.73
2018-09-03T01:53:02.401Z,8.60
2018-09-03T01:55:31.199Z,8.57
2018-09-03T01:57:59.964Z,8.93
2018-09-03T02:00:28.780Z,9.33
2018-09-03T02:02:57.622Z,9.50
2018-09-03T02:05:26.392Z,9.13
2018-09-03T02:07:55.151Z,9.33
2018-09-03T02:10:23.967Z,8.47
2018-09-03T02:12:52.723Z,9.03
2018-09-03T02:15:21.518Z,8.70
2018-09-03T02:17:50.306Z,8.40
2018-09-03T02:20:19.084Z,8.27
2018-09-03T02:22:47.875Z,8.03
2018-09-03T02:25:16.690Z,9.30
2018-09-03T02:27:45.479Z,8.90
2018-09-03T02:30:14.247Z,8.03
2018-09-03T02:32:43.456Z,9.00
2018-09-03T02:35:12.331Z,9.13
2018-09-03T02:37:41.106Z,8.70
2018-09-03T02:40:09.927Z,8.03
2018-09-03T02:42:38.750Z,8.37
2018-09-03T02:45:07.822Z,8.90
2018-09-03T02:47:36.660Z,8.00
2018-09-03T02:50:05.506Z,7.27
2018-09-03T02:52:34.627Z,8.03
2018-09-03T02:55:03.431Z,7.97
2018-09-03T02:57:32.498Z,6.73
2018-09-03T03:00:01.299Z,8.50
2018-09-03T03:02:30.126Z,7.73
2018-09-03T03:04:58.902Z,7.60
2018-09-03T03:07:27.720Z,8.03
2018-09-03T03:09:56.537Z,6.87
2018-09-03T03:12:25.973Z,7.60
2018-09-03T03:14:57.634Z,7.10
2018-09-03T03:17:26.435Z,7.73
2018-09-03T03:19:55.225Z,7.77
2018-09-03T03:22:24.027Z,8.10
2018-09-03T03:24:52.803Z,8.13
2018-09-03T03:27:21.579Z,8.10
2018-09-03T03:29:50.371Z,9.07
2018-09-03T03:32:19.200Z,7.83
2018-09-03T03:34:47.947Z,8.90
2018-09-03T03:37:16.739Z,9.27
2018-09-03T03:39:45.526Z,8.17
2018-09-03T03:42:14.320Z,7.47
2018-09-03T03:44:43.172Z,7.90
2018-09-03T03:47:12.059Z,7.70
2018-09-03T03:49:40.883Z,8.23
2018-09-03T03:52:09.716Z,8.57
2018-09-03T03:54:38.504Z,9.73
2018-09-03T03:57:07.990Z,9.07
2018-09-03T03:59:36.879Z,9.00
2018-09-03T04:02:05.708Z,9.33
2018-09-03T04:04:34.482Z,9.60
2018-09-03T04:07:03.272Z,9.50
2018-09-03T04:09:32.026Z,8.90
2018-09-03T04:12:00.815Z,9.30
2018-09-03T04:14:29.605Z,9.17
2018-09-03T04:16:58.395Z,9.10
2018-09-03T04:19:27.180Z,9.53
2018-09-03T04:21:55.968Z,9.27
2018-09-03T04:24:24.806Z,9.30
2018-09-03T04:26:53.644Z,8.23
2018-09-03T04:29:22.404Z,8.73
2018-09-03T04:31:51.187Z,9.17
2018-09-03T04:34:19.952Z,8.67
2018-09-03T04:36:48.751Z,9.40
2018-09-03T04:39:17.539Z,8.93
2018-09-03T04:41:46.339Z,10.00
2018-09-03T04:44:15.089Z,10.10
2018-09-03T04:46:43.900Z,10.30
2018-09-03T04:49:12.706Z,9.83
2018-09-03T04:51:41.478Z,10.30
2018-09-03T04:54:10.267Z,11.03
2018-09-03T04:56:39.034Z,9.87
2018-09-03T04:59:07.847Z,10.17
2018-09-03T05:01:36.704Z,9.20
2018-09-03T05:04:05.490Z,10.50
2018-09-03T05:06:34.284Z,9.97
2018-09-03T05:09:03.420Z,10.43
2018-09-03T05:11:32.261Z,11.10
2018-09-03T05:14:01.059Z,12.30
2018-09-03T05:16:30.168Z,11.07
2018-09-03T05:18:58.947Z,14.53
2018-09-03T05:21:27.772Z,13.33
2018-09-03T05:23:56.547Z,13.87
2018-09-03T05:26:25.415Z,13.27
2018-09-03T05:28:54.163Z,14.53
2018-09-03T05:31:23.026Z,13.77
2018-09-03T05:33:51.816Z,13.27
2018-09-03T05:36:20.650Z,14.40
2018-09-03T05:38:49.417Z,14.07
2018-09-03T05:41:18.214Z,13.47
2018-09-03T05:43:47.005Z,12.67
2018-09-03T05:46:15.834Z,11.60
2018-09-03T05:48:44.642Z,11.80
2018-09-03T05:51:13.509Z,10.53
2018-09-03T05:53:42.336Z,10.50
2018-09-03T05:56:11.105Z,9.80
2018-09-03T05:58:39.950Z,9.17
2018-09-03T06:01:08.808Z,8.20
2018-09-03T06:03:37.610Z,8.80
2018-09-03T06:06:06.475Z,7.73
2018-09-03T06:08:35.309Z,7.97
2018-09-03T06:11:04.215Z,6.77
2018-09-03T06:13:32.985Z,7.23
2018-09-03T06:16:01.848Z,7.43
2018-09-03T06:18:30.667Z,7.67
2018-09-03T06:20:59.536Z,6.83
2018-09-03T06:23:28.353Z,6.40
2018-09-03T06:25:57.161Z,6.17
2018-09-03T06:28:25.968Z,6.37
2018-09-03T06:30:54.739Z,6.13
2018-09-03T06:33:23.595Z,5.40
2018-09-03T06:35:52.450Z,5.20
2018-09-03T06:38:21.329Z,5.47
2018-09-03T06:40:50.101Z,5.77
2018-09-03T06:43:18.944Z,5.80
2018-09-03T06:45:47.737Z,5.63
2018-09-03T06:48:16.499Z,5.07
2018-09-03T06:50:45.278Z,4.80
2018-09-03T06:53:14.063Z,4.93
2018-09-03T06:55:42.862Z,5.47
2018-09-03T06:58:11.677Z,5.17
2018-09-03T07:00:40.501Z,5.00
2018-09-03T07:03:09.279Z,4.73
2018-09-03T07:05:38.047Z,4.90
2018-09-03T07:08:06.906Z,4.87
2018-09-03T07:10:35.664Z,4.83
2018-09-03T07:13:06.490Z,5.13
2018-09-03T07:15:35.930Z,4.60
2018-09-03T07:18:05.230Z,4.60
2018-09-03T07:20:34.531Z,4.67
2018-09-03T07:23:03.636Z,4.63
2018-09-03T07:25:32.443Z,4.90
2018-09-03T07:28:01.245Z,5.23
2018-09-03T07:30:30.063Z,5.73
2018-09-03T07:32:58.882Z,4.27
2018-09-03T07:35:28.130Z,4.50
2018-09-03T07:37:56.983Z,4.33
2018-09-03T07:40:25.846Z,4.80
2018-09-03T07:42:54.727Z,4.90
2018-09-03T07:45:23.491Z,4.53
2018-09-03T07:47:52.305Z,3.93
2018-09-03T07:50:21.480Z,4.73
2018-09-03T07:52:50.574Z,4.40
2018-09-03T07:55:19.347Z,4.03
2018-09-03T07:57:48.113Z,4.73
2018-09-03T08:00:16.911Z,5.10
2018-09-03T08:02:45.754Z,4.30
2018-09-03T08:05:14.536Z,5.03
2018-09-03T08:07:43.409Z,5.10
2018-09-03T08:10:12.176Z,4.80
2018-09-03T08:12:40.975Z,4.47
2018-09-03T08:15:09.754Z,5.53
2018-09-03T08:17:38.541Z,4.63
2018-09-03T08:20:07.483Z,5.00
2018-09-03T08:22:36.159Z,4.87
2018-09-03T08:25:05.246Z,4.63
2018-09-03T08:27:34.059Z,4.90
2018-09-03T08:30:02.965Z,5.00
2018-09-03T08:32:31.823Z,4.60
2018-09-03T08:35:00.636Z,4.97
2018-09-03T08:37:29.459Z,4.43
2018-09-03T08:39:58.561Z,4.30
2018-09-03T08:42:27.307Z,4.43
2018-09-03T08:44:56.114Z,4.33
2018-09-03T08:47:24.924Z,5.37
2018-09-03T08:49:53.753Z,4.70
2018-09-03T08:52:22.516Z,4.07
2018-09-03T08:54:51.325Z,5.27
2018-09-03T08:57:20.140Z,4.97
2018-09-03T08:59:48.923Z,5.60
2018-09-03T09:02:17.726Z,5.47
2018-09-03T09:04:46.558Z,6.20
2018-09-03T09:07:15.619Z,5.57
2018-09-03T09:09:44.439Z,4.70
2018-09-03T09:12:13.199Z,4.73
2018-09-03T09:14:41.962Z,4.23
2018-09-03T09:17:10.773Z,4.30
2018-09-03T09:19:39.555Z,5.80
2018-09-03T09:22:08.392Z,5.07
2018-09-03T09:24:37.175Z,4.63
2018-09-03T09:27:05.955Z,4.57
2018-09-03T09:29:34.721Z,4.57
2018-09-03T09:32:03.513Z,4.80
2018-09-03T09:34:32.338Z,5.87
2018-09-03T09:37:01.247Z,5.93
2018-09-03T09:39:30.015Z,5.37
2018-09-03T09:41:58.816Z,4.90
2018-09-03T09:44:27.611Z,5.43
2018-09-03T09:46:56.413Z,5.47
2018-09-03T09:49:25.232Z,4.30
2018-09-03T09:51:54.071Z,3.93
2018-09-03T09:54:22.861Z,4.97
2018-09-03T09:56:51.704Z,5.13
2018-09-03T09:59:20.441Z,4.00
2018-09-03T10:01:49.291Z,3.70
2018-09-03T10:04:18.141Z,3.90
2018-09-03T10:06:46.899Z,4.07
2018-09-03T10:09:15.688Z,3.80
2018-09-03T10:11:44.878Z,3.97
2018-09-03T10:14:13.761Z,4.33
2018-09-03T10:16:42.571Z,3.93
2018-09-03T10:19:11.408Z,3.57
2018-09-03T10:21:40.288Z,4.13
2018-09-03T10:24:09.055Z,4.10
2018-09-03T10:26:37.838Z,4.27
2018-09-03T10:29:06.934Z,3.83
2018-09-03T10:31:35.715Z,4.37
2018-09-03T10:34:04.570Z,3.90
2018-09-03T10:36:33.355Z,3.55
2018-09-03T10:39:02.228Z,3.70
2018-09-03T10:41:31.035Z,3.70
2018-09-03T10:43:59.871Z,4.10
2018-09-03T10:46:28.655Z,3.53
2018-09-03T10:48:57.443Z,3.57
2018-09-03T10:51:26.239Z,3.73
2018-09-03T10:53:55.055Z,3.50
2018-09-03T10:56:23.899Z,3.50
2018-09-03T10:58:52.738Z,3.50
2018-09-03T11:01:21.582Z,4.00
2018-09-03T11:03:50.407Z,3.60
2018-09-03T11:06:19.199Z,5.73
2018-09-03T11:08:48.005Z,4.30
2018-09-03T11:11:16.800Z,3.97
2018-09-03T11:13:45.581Z,3.27
2018-09-03T11:16:15.495Z,3.57
2018-09-03T11:18:44.289Z,6.37
2018-09-03T11:21:13.143Z,3.70
2018-09-03T11:23:41.875Z,3.33
2018-09-03T11:26:10.682Z,3.73
2018-09-03T11:28:39.558Z,3.80
2018-09-03T11:31:08.336Z,3.93
2018-09-03T11:33:37.095Z,3.73
2018-09-03T11:36:05.924Z,4.23
2018-09-03T11:38:34.700Z,3.33
2018-09-03T11:41:03.806Z,3.70
2018-09-03T11:43:32.613Z,3.83
2018-09-03T11:46:01.376Z,3.20
2018-09-03T11:48:30.176Z,4.33
2018-09-03T11:50:58.987Z,4.20
2018-09-03T11:53:27.747Z,4.40
2018-09-03T11:55:56.555Z,3.70
2018-09-03T11:58:25.387Z,3.60
2018-09-03T12:00:58.282Z,4.00
2018-09-03T12:03:27.090Z,3.27
2018-09-03T12:05:55.979Z,3.17
2018-09-03T12:08:24.769Z,4.60
2018-09-03T12:10:53.612Z,5.13
2018-09-03T12:13:22.359Z,4.90
2018-09-03T12:16:23.326Z,5.40
2018-09-03T12:18:52.811Z,4.83
2018-09-03T12:21:21.598Z,5.53
2018-09-03T12:23:50.434Z,5.50
2018-09-03T12:26:19.486Z,6.57
2018-09-03T12:28:48.293Z,6.90
2018-09-03T12:31:17.446Z,6.80
2018-09-03T12:33:46.255Z,5.43
2018-09-03T12:36:15.483Z,6.53
2018-09-03T12:38:44.368Z,6.90
2018-09-03T12:41:13.244Z,5.60
2018-09-03T12:43:42.068Z,5.50
2018-09-03T12:46:10.855Z,6.10
2018-09-03T12:48:39.716Z,5.83
2018-09-03T12:51:08.508Z,5.90
2018-09-03T12:53:37.291Z,7.20
2018-09-03T12:56:06.111Z,6.17
2018-09-03T12:58:34.937Z,7.07
2018-09-03T13:01:03.704Z,5.97
2018-09-03T13:03:32.568Z,5.20
2018-09-03T13:06:01.351Z,5.50
2018-09-03T13:08:30.137Z,6.85
2018-09-03T13:10:58.922Z,6.25
2018-09-03T13:13:27.713Z,6.60
2018-09-03T13:15:56.522Z,6.45
2018-09-03T13:18:25.322Z,6.50
2018-09-03T13:20:54.103Z,6.28
2018-09-03T13:23:22.882Z,6.00
2018-09-03T13:25:51.695Z,6.92
2018-09-03T13:28:20.514Z,7.28
2018-09-03T13:30:49.439Z,7.53
2018-09-03T13:33:18.258Z,6.67
2018-09-03T13:35:47.018Z,5.85
2018-09-03T13:38:15.803Z,6.78
2018-09-03T13:40:44.631Z,6.20
2018-09-03T13:43:13.458Z,5.78
2018-09-03T13:45:42.262Z,6.53
2018-09-03T13:48:11.090Z,7.58
2018-09-03T13:50:39.919Z,7.10
2018-09-03T13:53:08.778Z,5.90
2018-09-03T13:55:37.641Z,6.40
2018-09-03T13:58:06.539Z,6.80
2018-09-03T14:00:35.359Z,7.03
2018-09-03T14:03:04.195Z,6.90
2018-09-03T14:05:33.032Z,5.97
2018-09-03T14:08:01.866Z,6.43
2018-09-03T14:10:30.731Z,6.37
2018-09-03T14:12:59.645Z,5.80
2018-09-03T14:15:28.429Z,5.90
2018-09-03T14:17:57.219Z,6.22
2018-09-03T14:20:26.058Z,6.20
2018-09-03T14:22:54.809Z,5.50
2018-09-03T14:25:23.624Z,5.00
2018-09-03T14:27:52.431Z,11.53
2018-09-03T14:30:21.278Z,5.73
2018-09-03T14:32:50.096Z,6.00
2018-09-03T14:35:18.951Z,5.50
2018-09-03T14:37:47.729Z,6.10
2018-09-03T14:40:16.537Z,5.40
2018-09-03T14:42:45.700Z,4.80
2018-09-03T14:45:14.522Z,4.77
2018-09-03T14:47:43.319Z,4.60
2018-09-03T14:50:12.097Z,4.17
2018-09-03T14:52:41.087Z,4.17
2018-09-03T14:55:09.994Z,5.10
2018-09-03T14:57:38.778Z,5.03
2018-09-03T15:00:07.931Z,5.50
2018-09-03T15:02:36.761Z,4.27
2018-09-03T15:05:05.585Z,4.13
2018-09-03T15:07:34.384Z,4.90
2018-09-03T15:10:03.338Z,4.33
2018-09-03T15:12:32.168Z,4.00
2018-09-03T15:15:01.039Z,4.40
2018-09-03T15:17:29.807Z,3.70
2018-09-03T15:19:58.634Z,3.80
2018-09-03T15:22:27.466Z,3.12
2018-09-03T15:24:56.628Z,3.15
2018-09-03T15:27:25.478Z,3.07
2018-09-03T15:29:54.618Z,3.17
2018-09-03T15:32:23.480Z,2.90
2018-09-03T15:34:52.259Z,2.77
2018-09-03T15:37:21.107Z,2.63
2018-09-03T15:39:53.271Z,2.58
2018-09-03T15:42:22.818Z,3.02
2018-09-03T15:44:52.957Z,3.58
2018-09-03T15:47:21.772Z,3.47
2018-09-03T15:49:50.551Z,3.37
2018-09-03T15:52:19.341Z,3.55
2018-09-03T15:54:48.471Z,3.37
2018-09-03T15:57:17.328Z,3.07
2018-09-03T15:59:46.128Z,3.17
2018-09-03T16:02:14.975Z,3.27
2018-09-03T16:04:43.752Z,2.67
2018-09-03T16:07:12.593Z,3.20
2018-09-03T16:09:41.381Z,3.77
2018-09-03T16:12:10.163Z,3.30
2018-09-03T16:14:39.083Z,2.97
2018-09-03T16:17:07.876Z,3.30
2018-09-03T16:19:36.704Z,3.30
2018-09-03T16:22:05.927Z,3.30
2018-09-03T16:24:34.769Z,3.17
2018-09-03T16:27:03.647Z,3.70
2018-09-03T16:29:32.435Z,3.47
2018-09-03T16:32:01.224Z,3.20
2018-09-03T16:34:30.015Z,2.87
2018-09-03T16:36:58.807Z,3.47
2018-09-03T16:39:27.638Z,3.30
2018-09-03T16:41:56.519Z,3.87
2018-09-03T16:44:25.314Z,3.10
2018-09-03T16:46:54.107Z,3.83
2018-09-03T16:49:22.883Z,3.63
2018-09-03T16:51:51.670Z,3.47
2018-09-03T16:54:20.480Z,3.27
2018-09-03T16:56:49.239Z,3.67
2018-09-03T16:59:18.089Z,3.67
2018-09-03T17:01:46.920Z,3.67
2018-09-03T17:04:16.194Z,3.27
2018-09-03T17:06:45.158Z,3.80
2018-09-03T17:09:13.957Z,3.70
2018-09-03T17:11:42.752Z,3.37
2018-09-03T17:14:11.575Z,3.67
2018-09-03T17:16:40.391Z,3.87
2018-09-03T17:19:09.182Z,4.07
2018-09-03T17:21:37.998Z,3.90
2018-09-03T17:24:06.762Z,4.20
2018-09-03T17:26:35.563Z,4.10
2018-09-03T17:29:04.484Z,4.23
2018-09-03T17:31:33.591Z,3.40
2018-09-03T17:34:02.570Z,4.30
2018-09-03T17:36:31.330Z,4.37
2018-09-03T17:39:00.148Z,4.03
2018-09-03T17:41:28.934Z,4.90
2018-09-03T17:43:57.723Z,4.50
2018-09-03T17:46:26.467Z,4.20
2018-09-03T17:48:55.239Z,4.73
2018-09-03T17:51:24.104Z,7.17
2018-09-03T17:53:52.857Z,3.77
2018-09-03T17:56:21.703Z,3.90
2018-09-03T17:58:50.665Z,4.80
2018-09-03T18:01:19.432Z,4.60
2018-09-03T18:03:48.306Z,4.87
2018-09-03T18:06:17.127Z,5.70
2018-09-03T18:08:46.163Z,4.33
2018-09-03T18:11:14.992Z,4.40
2018-09-03T18:13:43.749Z,4.10
2018-09-03T18:16:12.607Z,4.27
2018-09-03T18:18:41.331Z,5.10
2018-09-03T18:21:10.182Z,4.37
2018-09-03T18:23:38.967Z,4.23
2018-09-03T18:26:07.778Z,3.90
2018-09-03T18:28:36.579Z,5.20
2018-09-03T18:31:05.435Z,5.47
2018-09-03T18:33:34.203Z,4.90
2018-09-03T18:36:03.079Z,4.80
2018-09-03T18:38:31.817Z,4.93
2018-09-03T18:41:00.643Z,4.07
2018-09-03T18:43:29.646Z,4.97
2018-09-03T18:45:58.611Z,4.30
2018-09-03T18:48:27.445Z,4.63
2018-09-03T18:50:56.217Z,4.10
2018-09-03T18:53:25.028Z,4.10
2018-09-03T18:55:53.771Z,4.00
2018-09-03T18:58:22.561Z,4.47
2018-09-03T19:00:51.379Z,3.97
2018-09-03T19:03:20.163Z,5.07
2018-09-03T19:05:49.023Z,4.80
2018-09-03T19:08:17.822Z,4.43
2018-09-03T19:10:46.628Z,4.40
2018-09-03T19:13:15.374Z,4.47
2018-09-03T19:15:44.177Z,4.27
2018-09-03T19:18:12.946Z,4.93
2018-09-03T19:20:41.763Z,5.07
2018-09-03T19:23:10.568Z,5.03
2018-09-03T19:25:39.347Z,4.93
2018-09-03T19:28:08.544Z,4.73
2018-09-03T19:30:37.419Z,5.23
2018-09-03T19:33:06.235Z,5.50
2018-09-03T19:35:35.419Z,6.30
2018-09-03T19:38:04.289Z,5.80
2018-09-03T19:40:33.108Z,5.90
2018-09-03T19:43:01.900Z,4.90
2018-09-03T19:45:30.723Z,5.87
2018-09-03T19:47:59.472Z,5.70
2018-09-03T19:50:28.278Z,5.70
2018-09-03T19:52:57.117Z,5.30
2018-09-03T19:55:25.939Z,5.37
2018-09-03T19:57:54.758Z,5.50
2018-09-03T20:00:23.540Z,4.60
2018-09-03T20:02:52.339Z,5.60
2018-09-03T20:05:21.127Z,6.23
2018-09-03T20:07:49.892Z,5.80
2018-09-03T20:10:18.702Z,5.37
2018-09-03T20:12:47.520Z,5.87
2018-09-03T20:15:21.572Z,6.03
2018-09-03T20:17:50.410Z,6.00
2018-09-03T20:20:19.164Z,5.97
2018-09-03T20:22:48.064Z,6.70
2018-09-03T20:25:16.856Z,6.00
2018-09-03T20:27:45.670Z,6.10
2018-09-03T20:30:14.464Z,6.17
2018-09-03T20:32:43.492Z,6.13
2018-09-03T20:35:12.310Z,6.23
2018-09-03T20:37:41.074Z,6.43
2018-09-03T20:40:09.968Z,6.13
2018-09-03T20:42:38.759Z,6.33
2018-09-03T20:45:07.646Z,6.37
2018-09-03T20:47:36.398Z,6.23
2018-09-03T20:50:05.319Z,6.50
2018-09-03T20:52:34.074Z,6.47
2018-09-03T20:55:02.977Z,6.87
2018-09-03T20:57:31.789Z,6.43
2018-09-03T21:00:00.572Z,6.37
2018-09-03T21:02:29.335Z,6.40
2018-09-03T21:04:58.124Z,6.73
2018-09-03T21:07:26.898Z,6.40
2018-09-03T21:09:56.588Z,6.77
2018-09-03T21:12:25.374Z,6.40
2018-09-03T21:14:54.138Z,6.43
2018-09-03T21:17:22.940Z,6.47
2018-09-03T21:19:51.766Z,7.03
2018-09-03T21:22:20.608Z,6.40
2018-09-03T21:24:49.450Z,6.60
2018-09-03T21:27:18.215Z,7.13
2018-09-03T21:29:47.046Z,7.77
2018-09-03T21:32:15.945Z,7.57
2018-09-03T21:34:44.755Z,7.40
2018-09-03T21:37:13.674Z,7.83
2018-09-03T21:39:43.102Z,7.77
2018-09-03T21:42:11.920Z,7.53
2018-09-03T21:44:40.843Z,7.60
2018-09-03T21:47:09.632Z,7.63
2018-09-03T21:49:38.563Z,7.83
2018-09-03T21:52:07.405Z,7.20
2018-09-03T21:54:36.243Z,8.10
2018-09-03T21:57:05.044Z,8.13
2018-09-03T21:59:33.950Z,7.00
2018-09-03T22:02:02.773Z,7.50
2018-09-03T22:04:31.590Z,7.13
2018-09-03T22:07:00.364Z,7.17
2018-09-03T22:09:29.144Z,7.30
2018-09-03T22:11:57.928Z,7.50
2018-09-03T22:14:26.720Z,6.97
2018-09-03T22:16:55.510Z,7.13
2018-09-03T22:19:24.310Z,6.80
2018-09-03T22:21:53.090Z,7.10
2018-09-03T22:24:21.890Z,7.33
2018-09-03T22:26:50.845Z,7.57
2018-09-03T22:29:19.663Z,6.73
2018-09-03T22:31:51.243Z,6.80
2018-09-03T22:34:20.075Z,7.03
2018-09-03T22:36:48.850Z,7.00
2018-09-03T22:39:17.644Z,6.80
2018-09-03T22:41:46.456Z,6.83
2018-09-03T22:44:15.214Z,7.10
2018-09-03T22:46:44.020Z,6.50
2018-09-03T22:49:12.767Z,6.87
2018-09-03T22:51:41.637Z,6.03
2018-09-03T22:54:10.434Z,6.07
2018-09-03T22:56:39.212Z,6.57
2018-09-03T22:59:08.027Z,5.80
2018-09-03T23:01:36.867Z,6.03
2018-09-03T23:04:05.684Z,6.13
2018-09-03T23:06:34.471Z,5.80
2018-09-03T23:09:03.807Z,5.50
2018-09-03T23:11:32.561Z,5.93
2018-09-03T23:14:01.386Z,6.20
2018-09-03T23:16:30.167Z,6.53
2018-09-03T23:18:58.930Z,5.67
2018-09-03T23:21:27.715Z,6.30
2018-09-03T23:23:56.510Z,6.20
2018-09-03T23:26:25.642Z,6.37
2018-09-03T23:28:54.449Z,7.50
2018-09-03T23:31:23.443Z,5.70
2018-09-03T23:33:52.590Z,6.50
2018-09-03T23:36:21.384Z,6.77
2018-09-03T23:38:50.195Z,6.23
2018-09-03T23:41:18.948Z,6.73
2018-09-03T23:43:47.759Z,6.20
2018-09-03T23:46:16.602Z,6.30
2018-09-03T23:48:45.374Z,6.27
2018-09-03T23:51:14.218Z,6.90
2018-09-03T23:53:43.028Z,6.77
2018-09-03T23:56:11.798Z,6.70
2018-09-03T23:58:40.577Z,7.53
